createdAt,value
2018-06-13T00:00:41.375Z,0.00
2018-06-13T00:02:34.117Z,0.00
2018-06-13T00:03:33.997Z,0.00
2018-06-13T00:05:26.860Z,0.00
2018-06-13T00:06:26.776Z,0.00
2018-06-13T00:08:20.021Z,0.00
2018-06-13T00:09:19.942Z,0.00
2018-06-13T00:11:13.272Z,0.00
2018-06-13T00:12:12.564Z,0.00
2018-06-13T00:14:05.406Z,0.00
2018-06-13T00:15:05.312Z,0.00
2018-06-13T00:17:02.803Z,0.00
2018-06-13T00:18:02.106Z,0.00
2018-06-13T00:19:56.430Z,0.00
2018-06-13T00:20:55.834Z,0.00
2018-06-13T00:22:48.679Z,0.00
2018-06-13T00:23:48.568Z,0.00
2018-06-13T00:25:41.340Z,0.00
2018-06-13T00:26:41.229Z,0.00
2018-06-13T00:28:33.993Z,0.00
2018-06-13T00:29:33.881Z,0.00
2018-06-13T00:31:26.751Z,0.00
2018-06-13T00:32:26.684Z,0.00
2018-06-13T00:34:19.363Z,0.00
2018-06-13T00:35:19.263Z,0.00
2018-06-13T00:37:12.098Z,0.00
2018-06-13T00:38:11.919Z,0.00
2018-06-13T00:40:04.683Z,0.00
2018-06-13T00:41:04.591Z,0.00
2018-06-13T00:42:57.936Z,0.00
2018-06-13T00:43:57.310Z,0.00
2018-06-13T00:45:50.054Z,0.00
2018-06-13T00:46:49.983Z,0.00
2018-06-13T00:48:43.322Z,0.00
2018-06-13T00:49:42.703Z,0.00
2018-06-13T00:51:35.490Z,0.00
2018-06-13T00:52:35.358Z,0.00
2018-06-13T00:54:28.228Z,0.00
2018-06-13T00:55:28.026Z,0.00
2018-06-13T00:57:20.885Z,0.00
2018-06-13T00:58:20.647Z,0.00
2018-06-13T01:00:13.773Z,0.00
2018-06-13T01:01:13.331Z,0.00
2018-06-13T01:03:06.167Z,0.00
2018-06-13T01:04:06.052Z,0.00
2018-06-13T01:05:58.891Z,0.00
2018-06-13T01:06:58.795Z,0.00
2018-06-13T01:08:51.572Z,0.00
2018-06-13T01:09:51.462Z,0.00
2018-06-13T01:11:44.292Z,0.00
2018-06-13T01:12:44.096Z,0.00
2018-06-13T01:14:37.399Z,0.00
2018-06-13T01:15:37.320Z,0.00
2018-06-13T01:17:31.039Z,0.00
2018-06-13T01:18:30.930Z,0.00
2018-06-13T01:20:23.757Z,0.00
2018-06-13T01:21:23.597Z,0.00
2018-06-13T01:23:16.324Z,0.00
2018-06-13T01:24:16.259Z,0.00
2018-06-13T01:26:09.094Z,0.00
2018-06-13T01:27:08.965Z,0.00
2018-06-13T01:29:01.827Z,0.00
2018-06-13T01:30:01.621Z,0.00
2018-06-13T01:31:54.378Z,0.00
2018-06-13T01:32:54.269Z,0.00
2018-06-13T01:34:47.129Z,0.00
2018-06-13T01:35:47.004Z,0.00
2018-06-13T01:37:40.369Z,0.00
2018-06-13T01:38:39.661Z,0.00
2018-06-13T01:40:33.445Z,0.00
2018-06-13T01:41:33.326Z,0.00
2018-06-13T01:43:26.685Z,0.00
2018-06-13T01:44:25.973Z,0.00
2018-06-13T01:46:18.769Z,0.00
2018-06-13T01:47:18.621Z,0.00
2018-06-13T01:49:11.995Z,0.00
2018-06-13T01:50:11.401Z,0.00
2018-06-13T01:52:04.015Z,0.00
2018-06-13T01:53:03.918Z,0.00
2018-06-13T01:54:57.220Z,0.00
2018-06-13T01:55:57.080Z,0.00
2018-06-13T01:57:50.001Z,0.00
2018-06-13T01:58:49.740Z,0.00
2018-06-13T02:00:43.159Z,0.00
2018-06-13T02:01:42.483Z,0.00
2018-06-13T02:03:35.237Z,0.00
2018-06-13T02:04:35.116Z,0.00
2018-06-13T02:06:28.477Z,0.00
2018-06-13T02:07:27.889Z,0.00
2018-06-13T02:09:20.635Z,0.00
2018-06-13T02:10:20.514Z,0.00
2018-06-13T02:12:13.368Z,0.00
2018-06-13T02:13:13.266Z,0.00
2018-06-13T02:15:06.005Z,0.00
2018-06-13T02:16:05.926Z,0.00
2018-06-13T02:17:58.659Z,0.00
2018-06-13T02:18:58.560Z,0.00
2018-06-13T02:20:51.401Z,0.00
2018-06-13T02:21:51.350Z,0.00
2018-06-13T02:23:44.087Z,0.00
2018-06-13T02:24:43.962Z,0.00
2018-06-13T02:26:36.712Z,0.00
2018-06-13T02:27:36.609Z,0.00
2018-06-13T02:29:29.357Z,0.00
2018-06-13T02:30:29.263Z,0.00
2018-06-13T02:32:22.084Z,0.00
2018-06-13T02:33:21.995Z,4.00
2018-06-13T02:35:14.756Z,0.00
2018-06-13T02:36:14.648Z,0.00
2018-06-13T02:38:07.403Z,4.00
2018-06-13T02:39:07.287Z,4.00
2018-06-13T02:41:00.076Z,0.00
2018-06-13T02:41:59.970Z,4.00
2018-06-13T02:43:52.746Z,4.00
2018-06-13T02:44:52.587Z,8.00
2018-06-13T02:46:45.323Z,8.00
2018-06-13T02:47:45.234Z,4.00
2018-06-13T02:49:38.126Z,8.00
2018-06-13T02:50:38.038Z,8.00
2018-06-13T02:52:30.824Z,8.00
2018-06-13T02:53:30.750Z,12.00
2018-06-13T02:55:23.620Z,12.00
2018-06-13T02:56:23.379Z,12.00
2018-06-13T02:58:16.730Z,12.00
2018-06-13T02:59:16.037Z,16.00
2018-06-13T03:01:08.817Z,16.00
2018-06-13T03:02:08.676Z,16.00
2018-06-13T03:04:01.522Z,16.00
2018-06-13T03:05:01.331Z,20.00
2018-06-13T03:06:54.619Z,20.00
2018-06-13T03:07:54.485Z,24.00
2018-06-13T03:09:47.821Z,28.00
2018-06-13T03:10:47.133Z,32.00
2018-06-13T03:12:39.992Z,32.00
2018-06-13T03:13:39.870Z,36.00
2018-06-13T03:15:32.619Z,40.00
2018-06-13T03:16:32.523Z,40.00
2018-06-13T03:18:25.282Z,40.00
2018-06-13T03:19:25.187Z,48.00
2018-06-13T03:21:18.023Z,48.00
2018-06-13T03:22:17.916Z,48.00
2018-06-13T03:24:11.323Z,56.00
2018-06-13T03:25:10.614Z,60.00
2018-06-13T03:27:03.317Z,64.00
2018-06-13T03:28:03.214Z,64.00
2018-06-13T03:29:56.003Z,72.00
2018-06-13T03:30:55.869Z,76.00
2018-06-13T03:32:48.640Z,80.00
2018-06-13T03:33:48.527Z,80.00
2018-06-13T03:35:41.883Z,76.00
2018-06-13T03:36:41.182Z,72.00
2018-06-13T03:38:34.528Z,76.00
2018-06-13T03:39:33.966Z,72.00
2018-06-13T03:41:26.708Z,76.00
2018-06-13T03:42:26.552Z,84.00
2018-06-13T03:44:19.351Z,92.00
2018-06-13T03:45:19.195Z,92.00
2018-06-13T03:47:12.038Z,100.00
2018-06-13T03:48:11.958Z,108.00
2018-06-13T03:50:04.847Z,116.00
2018-06-13T03:51:04.736Z,116.00
2018-06-13T03:52:58.063Z,136.00
2018-06-13T03:53:57.461Z,140.00
2018-06-13T03:55:50.208Z,156.00
2018-06-13T03:56:50.106Z,164.00
2018-06-13T03:58:42.942Z,176.00
2018-06-13T03:59:42.849Z,188.00
2018-06-13T04:01:35.614Z,212.00
2018-06-13T04:02:35.513Z,224.00
2018-06-13T04:04:28.374Z,252.00
2018-06-13T04:05:28.297Z,256.00
2018-06-13T04:07:21.108Z,264.00
2018-06-13T04:08:21.088Z,264.00
2018-06-13T04:10:14.016Z,268.00
2018-06-13T04:11:13.843Z,276.00
2018-06-13T04:13:06.798Z,296.00
2018-06-13T04:14:07.246Z,304.00
2018-06-13T04:15:59.649Z,296.00
2018-06-13T04:16:59.556Z,308.00
2018-06-13T04:18:52.433Z,336.00
2018-06-13T04:19:52.201Z,336.00
2018-06-13T04:21:44.950Z,328.00
2018-06-13T04:22:44.859Z,308.00
2018-06-13T04:24:37.708Z,316.00
2018-06-13T04:25:37.639Z,316.00
2018-06-13T04:27:30.453Z,300.00
2018-06-13T04:28:30.360Z,308.00
2018-06-13T04:30:23.227Z,376.00
2018-06-13T04:31:23.104Z,392.00
2018-06-13T04:33:15.876Z,380.00
2018-06-13T04:34:15.745Z,388.00
2018-06-13T04:36:08.541Z,404.00
2018-06-13T04:37:08.399Z,412.00
2018-06-13T04:39:01.280Z,444.00
2018-06-13T04:40:01.141Z,460.00
2018-06-13T04:41:53.939Z,464.00
2018-06-13T04:42:53.785Z,464.00
2018-06-13T04:44:46.581Z,476.00
2018-06-13T04:45:46.458Z,468.00
2018-06-13T04:47:39.312Z,464.00
2018-06-13T04:48:39.191Z,464.00
2018-06-13T04:50:31.939Z,448.00
2018-06-13T04:51:31.833Z,480.00
2018-06-13T04:53:24.678Z,500.00
2018-06-13T04:54:24.583Z,528.00
2018-06-13T04:56:17.452Z,568.00
2018-06-13T04:57:17.321Z,556.00
2018-06-13T04:59:10.078Z,528.00
2018-06-13T05:00:10.015Z,512.00
2018-06-13T05:02:02.741Z,492.00
2018-06-13T05:03:02.652Z,456.00
2018-06-13T05:04:55.364Z,404.00
2018-06-13T05:05:55.287Z,368.00
2018-06-13T05:07:48.066Z,336.00
2018-06-13T05:08:47.943Z,320.00
2018-06-13T05:10:40.826Z,312.00
2018-06-13T05:11:40.832Z,316.00
2018-06-13T05:13:33.535Z,380.00
2018-06-13T05:14:33.428Z,404.00
2018-06-13T05:16:26.291Z,488.00
2018-06-13T05:17:26.269Z,536.00
2018-06-13T05:19:19.207Z,684.00
2018-06-13T05:20:19.052Z,748.00
2018-06-13T05:22:11.883Z,832.00
2018-06-13T05:23:11.787Z,888.00
2018-06-13T05:25:04.637Z,992.00
2018-06-13T05:26:04.531Z,1032.00
2018-06-13T05:27:57.395Z,996.00
2018-06-13T05:28:57.283Z,960.00
2018-06-13T05:30:50.131Z,944.00
2018-06-13T05:31:50.041Z,976.00
2018-06-13T05:33:42.794Z,1084.00
2018-06-13T05:34:42.664Z,1144.00
2018-06-13T05:36:35.511Z,1244.00
2018-06-13T05:37:35.423Z,1260.00
2018-06-13T05:39:28.300Z,1260.00
2018-06-13T05:40:28.061Z,1240.00
2018-06-13T05:42:21.238Z,1272.00
2018-06-13T05:43:21.121Z,1248.00
2018-06-13T05:45:13.972Z,1092.00
2018-06-13T05:46:13.879Z,992.00
2018-06-13T05:48:06.785Z,852.00
2018-06-13T05:49:06.589Z,756.00
2018-06-13T05:50:59.482Z,652.00
2018-06-13T05:51:59.292Z,644.00
2018-06-13T05:53:52.179Z,564.00
2018-06-13T05:54:52.097Z,540.00
2018-06-13T05:56:45.284Z,560.00
2018-06-13T05:57:45.178Z,528.00
2018-06-13T05:59:38.953Z,584.00
2018-06-13T06:00:38.839Z,648.00
2018-06-13T06:02:31.688Z,772.00
2018-06-13T06:03:31.592Z,820.00
2018-06-13T06:05:24.355Z,948.00
2018-06-13T06:06:24.247Z,1012.00
2018-06-13T06:08:16.984Z,1112.00
2018-06-13T06:09:16.878Z,1132.00
2018-06-13T06:11:09.747Z,1148.00
2018-06-13T06:12:09.637Z,1156.00
2018-06-13T06:14:02.376Z,1184.00
2018-06-13T06:15:02.284Z,1204.00
2018-06-13T06:16:55.149Z,1220.00
2018-06-13T06:17:55.058Z,1172.00
2018-06-13T06:19:47.891Z,1108.00
2018-06-13T06:20:47.684Z,1132.00
2018-06-13T06:22:43.795Z,1224.00
2018-06-13T06:23:43.675Z,1264.00
2018-06-13T06:25:37.272Z,1340.00
2018-06-13T06:26:37.200Z,1384.00
2018-06-13T06:28:30.047Z,1444.00
2018-06-13T06:29:29.921Z,1472.00
2018-06-13T06:31:22.760Z,1536.00
2018-06-13T06:32:22.569Z,1568.00
2018-06-13T06:34:15.362Z,1592.00
2018-06-13T06:35:15.247Z,1580.00
2018-06-13T06:37:08.476Z,1520.00
2018-06-13T06:38:08.521Z,1492.00
2018-06-13T06:40:01.340Z,1424.00
2018-06-13T06:41:01.271Z,1320.00
2018-06-13T06:42:53.983Z,1132.00
2018-06-13T06:43:53.932Z,1104.00
2018-06-13T06:45:46.778Z,988.00
2018-06-13T06:46:46.672Z,916.00
2018-06-13T06:48:39.514Z,848.00
2018-06-13T06:49:39.427Z,840.00
2018-06-13T06:51:32.302Z,920.00
2018-06-13T06:52:32.145Z,972.00
2018-06-13T06:54:25.051Z,1040.00
2018-06-13T06:55:24.856Z,1104.00
2018-06-13T06:57:17.681Z,1260.00
2018-06-13T06:58:17.595Z,1308.00
2018-06-13T07:00:10.473Z,1396.00
2018-06-13T07:01:10.333Z,1488.00
2018-06-13T07:03:03.991Z,1556.00
2018-06-13T07:04:03.861Z,1560.00
2018-06-13T07:05:56.767Z,1596.00
2018-06-13T07:06:56.635Z,1572.00
2018-06-13T07:08:49.484Z,1588.00
2018-06-13T07:09:49.353Z,1624.00
2018-06-13T07:11:42.752Z,1568.00
2018-06-13T07:12:42.668Z,1544.00
2018-06-13T07:14:35.567Z,1632.00
2018-06-13T07:15:35.356Z,1636.00
2018-06-13T07:17:28.313Z,1632.00
2018-06-13T07:18:28.131Z,1548.00
2018-06-13T07:20:21.028Z,1284.00
2018-06-13T07:21:20.901Z,1112.00
2018-06-13T07:23:13.753Z,920.00
2018-06-13T07:24:13.646Z,892.00
2018-06-13T07:26:06.439Z,924.00
2018-06-13T07:27:06.406Z,900.00
2018-06-13T07:28:59.225Z,892.00
2018-06-13T07:29:59.091Z,956.00
2018-06-13T07:31:52.530Z,1152.00
2018-06-13T07:32:51.882Z,1276.00
2018-06-13T07:34:46.129Z,1404.00
2018-06-13T07:35:46.113Z,1496.00
2018-06-13T07:37:38.920Z,1664.00
2018-06-13T07:38:38.817Z,1736.00
2018-06-13T07:40:32.164Z,1844.00
2018-06-13T07:41:31.561Z,1844.00
2018-06-13T07:43:24.597Z,1848.00
2018-06-13T07:44:24.302Z,1876.00
2018-06-13T07:46:17.054Z,1856.00
2018-06-13T07:47:16.965Z,1792.00
2018-06-13T07:49:09.826Z,1780.00
2018-06-13T07:50:09.694Z,1800.00
2018-06-13T07:52:02.459Z,1684.00
2018-06-13T07:53:02.360Z,1632.00
2018-06-13T07:54:55.209Z,1424.00
2018-06-13T07:55:55.088Z,1320.00
2018-06-13T07:57:47.973Z,1172.00
2018-06-13T07:58:47.829Z,1068.00
2018-06-13T08:00:40.691Z,968.00
2018-06-13T08:01:40.917Z,928.00
2018-06-13T08:03:33.452Z,784.00
2018-06-13T08:04:33.362Z,708.00
2018-06-13T08:06:26.082Z,712.00
2018-06-13T08:07:25.966Z,752.00
2018-06-13T08:09:18.836Z,764.00
2018-06-13T08:10:18.756Z,768.00
2018-06-13T08:12:12.650Z,832.00
2018-06-13T08:13:11.870Z,900.00
2018-06-13T08:15:04.659Z,1040.00
2018-06-13T08:16:04.520Z,1140.00
2018-06-13T08:17:57.379Z,1240.00
2018-06-13T08:18:57.280Z,1304.00
2018-06-13T08:20:50.123Z,1376.00
2018-06-13T08:21:50.010Z,1392.00
2018-06-13T08:23:42.756Z,1556.00
2018-06-13T08:24:42.668Z,1584.00
2018-06-13T08:26:35.553Z,1716.00
2018-06-13T08:27:35.430Z,1692.00
2018-06-13T08:29:28.789Z,1468.00
2018-06-13T08:30:28.689Z,1352.00
2018-06-13T08:32:21.442Z,1376.00
2018-06-13T08:33:21.341Z,1396.00
2018-06-13T08:35:14.078Z,1388.00
2018-06-13T08:36:13.966Z,1452.00
2018-06-13T08:38:06.731Z,1640.00
2018-06-13T08:39:06.624Z,1688.00
2018-06-13T08:40:59.475Z,1764.00
2018-06-13T08:41:59.365Z,1796.00
2018-06-13T08:43:52.133Z,1932.00
2018-06-13T08:44:52.011Z,2024.00
2018-06-13T08:46:44.775Z,2192.00
2018-06-13T08:47:44.658Z,2292.00
2018-06-13T08:49:38.011Z,2400.00
2018-06-13T08:50:37.917Z,2460.00
2018-06-13T08:52:30.691Z,2552.00
2018-06-13T08:53:30.572Z,2588.00
2018-06-13T08:55:23.439Z,2616.00
2018-06-13T08:56:23.242Z,2664.00
2018-06-13T08:58:15.981Z,2812.00
2018-06-13T08:59:15.876Z,2892.00
2018-06-13T09:01:08.623Z,2996.00
2018-06-13T09:02:08.508Z,3016.00
2018-06-13T09:04:01.354Z,3040.00
2018-06-13T09:05:01.279Z,3068.00
2018-06-13T09:06:54.152Z,3120.00
2018-06-13T09:07:54.031Z,3128.00
2018-06-13T09:09:46.882Z,3120.00
2018-06-13T09:10:46.761Z,3064.00
2018-06-13T09:12:39.511Z,2940.00
2018-06-13T09:13:39.424Z,2884.00
2018-06-13T09:15:33.172Z,3056.00
2018-06-13T09:16:33.083Z,3104.00
2018-06-13T09:18:25.839Z,3156.00
2018-06-13T09:19:25.752Z,3108.00
2018-06-13T09:21:18.503Z,2916.00
2018-06-13T09:22:18.417Z,2924.00
2018-06-13T09:24:11.236Z,2932.00
2018-06-13T09:25:11.131Z,2860.00
2018-06-13T09:27:03.885Z,2832.00
2018-06-13T09:28:03.789Z,2828.00
2018-06-13T09:29:56.619Z,2684.00
2018-06-13T09:30:56.422Z,2624.00
2018-06-13T09:32:49.298Z,2524.00
2018-06-13T09:33:49.164Z,2480.00
2018-06-13T09:35:41.912Z,2096.00
2018-06-13T09:36:41.830Z,1728.00
2018-06-13T09:38:34.571Z,1400.00
2018-06-13T09:39:34.467Z,1360.00
2018-06-13T09:41:27.218Z,1356.00
2018-06-13T09:42:27.113Z,1360.00
2018-06-13T09:44:19.953Z,1292.00
2018-06-13T09:45:19.877Z,1260.00
2018-06-13T09:47:15.130Z,1256.00
2018-06-13T09:48:12.620Z,1264.00
2018-06-13T09:50:05.537Z,1300.00
2018-06-13T09:51:05.379Z,1328.00
2018-06-13T09:52:58.218Z,1344.00
2018-06-13T09:53:58.123Z,1344.00
2018-06-13T09:55:50.957Z,1384.00
2018-06-13T09:56:50.788Z,1396.00
2018-06-13T09:58:43.514Z,1472.00
2018-06-13T09:59:43.398Z,1552.00
2018-06-13T10:01:36.170Z,1804.00
2018-06-13T10:02:36.053Z,1936.00
2018-06-13T10:04:28.904Z,2148.00
2018-06-13T10:05:28.843Z,2248.00
2018-06-13T10:07:21.651Z,2460.00
2018-06-13T10:08:21.542Z,2560.00
2018-06-13T10:10:14.415Z,2716.00
2018-06-13T10:11:14.233Z,2784.00
2018-06-13T10:13:07.016Z,2868.00
2018-06-13T10:14:06.846Z,2916.00
2018-06-13T10:15:59.708Z,3004.00
2018-06-13T10:16:59.496Z,3052.00
2018-06-13T10:18:52.256Z,3172.00
2018-06-13T10:19:52.153Z,3176.00
2018-06-13T10:21:44.980Z,3248.00
2018-06-13T10:22:44.878Z,3336.00
2018-06-13T10:24:37.657Z,3508.00
2018-06-13T10:25:37.536Z,3588.00
2018-06-13T10:27:30.394Z,3504.00
2018-06-13T10:28:30.282Z,3384.00
2018-06-13T10:30:23.040Z,3332.00
2018-06-13T10:31:22.939Z,3432.00
2018-06-13T10:33:15.767Z,3524.00
2018-06-13T10:34:15.714Z,3332.00
2018-06-13T10:36:08.458Z,2900.00
2018-06-13T10:37:08.327Z,2484.00
2018-06-13T10:39:01.174Z,2048.00
2018-06-13T10:40:01.078Z,1900.00
2018-06-13T10:41:53.925Z,1604.00
2018-06-13T10:42:53.823Z,1460.00
2018-06-13T10:44:47.177Z,1216.00
2018-06-13T10:45:46.599Z,1156.00
2018-06-13T10:47:39.458Z,1136.00
2018-06-13T10:48:39.332Z,1132.00
2018-06-13T10:50:32.102Z,1124.00
2018-06-13T10:51:31.981Z,1128.00
2018-06-13T10:53:24.833Z,1140.00
2018-06-13T10:54:24.731Z,1184.00
2018-06-13T10:56:17.558Z,1228.00
2018-06-13T10:57:17.469Z,1260.00
2018-06-13T10:59:10.241Z,1336.00
2018-06-13T11:00:10.128Z,1404.00
2018-06-13T11:02:02.958Z,1596.00
2018-06-13T11:03:02.891Z,1664.00
2018-06-13T11:04:56.241Z,1656.00
2018-06-13T11:05:56.031Z,1620.00
2018-06-13T11:07:48.881Z,1600.00
2018-06-13T11:08:48.783Z,1620.00
2018-06-13T11:10:41.664Z,1600.00
2018-06-13T11:11:41.527Z,1548.00
2018-06-13T11:13:34.357Z,1344.00
2018-06-13T11:14:34.194Z,1208.00
2018-06-13T11:16:27.031Z,1088.00
2018-06-13T11:17:26.927Z,1116.00
2018-06-13T11:19:19.891Z,1088.00
2018-06-13T11:20:19.669Z,1024.00
2018-06-13T11:22:12.616Z,972.00
2018-06-13T11:23:12.452Z,980.00
2018-06-13T11:25:05.298Z,1044.00
2018-06-13T11:26:05.289Z,1108.00
2018-06-13T11:27:58.223Z,1272.00
2018-06-13T11:28:58.005Z,1364.00
2018-06-13T11:30:50.886Z,1448.00
2018-06-13T11:31:50.721Z,1468.00
2018-06-13T11:33:43.460Z,1508.00
2018-06-13T11:34:43.344Z,1500.00
2018-06-13T11:36:36.181Z,1504.00
2018-06-13T11:37:36.105Z,1540.00
2018-06-13T11:39:29.078Z,1644.00
2018-06-13T11:40:28.906Z,1716.00
2018-06-13T11:42:22.966Z,1908.00
2018-06-13T11:43:22.082Z,1984.00
2018-06-13T11:45:14.955Z,2160.00
2018-06-13T11:46:14.907Z,2320.00
2018-06-13T11:48:07.784Z,2636.00
2018-06-13T11:49:07.611Z,2744.00
2018-06-13T11:51:00.419Z,2844.00
2018-06-13T11:52:00.320Z,2840.00
2018-06-13T11:53:53.189Z,2660.00
2018-06-13T11:54:53.054Z,2580.00
2018-06-13T11:56:45.827Z,2412.00
2018-06-13T11:57:45.731Z,2340.00
2018-06-13T11:59:38.571Z,2312.00
2018-06-13T12:00:38.489Z,2232.00
2018-06-13T12:02:31.260Z,1848.00
2018-06-13T12:03:31.131Z,1736.00
2018-06-13T12:05:23.878Z,1656.00
2018-06-13T12:06:23.770Z,1628.00
2018-06-13T12:08:16.539Z,1620.00
2018-06-13T12:09:16.429Z,1644.00
2018-06-13T12:11:09.330Z,1816.00
2018-06-13T12:12:10.234Z,1868.00
2018-06-13T12:14:02.032Z,2140.00
2018-06-13T12:15:01.910Z,2212.00
2018-06-13T12:16:54.663Z,2328.00
2018-06-13T12:17:54.589Z,2344.00
2018-06-13T12:19:47.417Z,2468.00
2018-06-13T12:20:47.306Z,2544.00
2018-06-13T12:22:40.167Z,2588.00
2018-06-13T12:23:40.066Z,2576.00
2018-06-13T12:25:33.335Z,2404.00
2018-06-13T12:26:33.244Z,2280.00
2018-06-13T12:28:25.982Z,1864.00
2018-06-13T12:29:25.869Z,1588.00
2018-06-13T12:31:18.823Z,1148.00
2018-06-13T12:32:18.662Z,1012.00
2018-06-13T12:34:11.398Z,880.00
2018-06-13T12:35:11.272Z,880.00
2018-06-13T12:37:04.129Z,972.00
2018-06-13T12:38:04.020Z,1028.00
2018-06-13T12:39:56.881Z,1232.00
2018-06-13T12:40:56.787Z,1376.00
2018-06-13T12:42:49.636Z,1576.00
2018-06-13T12:43:49.524Z,1684.00
2018-06-13T12:45:42.397Z,1956.00
2018-06-13T12:46:42.285Z,2088.00
2018-06-13T12:48:35.536Z,2276.00
2018-06-13T12:49:35.427Z,2336.00
2018-06-13T12:51:28.260Z,2468.00
2018-06-13T12:52:28.180Z,2512.00
2018-06-13T12:54:20.942Z,2560.00
2018-06-13T12:55:20.835Z,2556.00
2018-06-13T12:57:13.691Z,2488.00
2018-06-13T12:58:13.571Z,2504.00
2018-06-13T13:00:06.410Z,2488.00
2018-06-13T13:01:06.310Z,2392.00
2018-06-13T13:02:59.165Z,2216.00
2018-06-13T13:03:59.063Z,2180.00
2018-06-13T13:05:51.932Z,2164.00
2018-06-13T13:06:51.728Z,2132.00
2018-06-13T13:08:44.580Z,2084.00
2018-06-13T13:09:44.460Z,2100.00
2018-06-13T13:11:37.231Z,2264.00
2018-06-13T13:12:37.148Z,2336.00
2018-06-13T13:14:29.961Z,2436.00
2018-06-13T13:15:29.865Z,2508.00
2018-06-13T13:17:22.888Z,2616.00
2018-06-13T13:18:22.605Z,2660.00
2018-06-13T13:20:15.486Z,2744.00
2018-06-13T13:21:15.364Z,2820.00
2018-06-13T13:23:08.242Z,2968.00
2018-06-13T13:24:08.114Z,3028.00
2018-06-13T13:26:00.969Z,3160.00
2018-06-13T13:27:00.862Z,3184.00
2018-06-13T13:28:53.750Z,3216.00
2018-06-13T13:29:53.633Z,3256.00
2018-06-13T13:31:46.474Z,3380.00
2018-06-13T13:32:46.399Z,3392.00
2018-06-13T13:34:39.350Z,3420.00
2018-06-13T13:35:39.152Z,3424.00
2018-06-13T13:37:31.899Z,3444.00
2018-06-13T13:38:31.767Z,3492.00
2018-06-13T13:40:24.653Z,3472.00
2018-06-13T13:41:24.499Z,3480.00
2018-06-13T13:43:17.905Z,3512.00
2018-06-13T13:44:17.279Z,3492.00
2018-06-13T13:46:10.143Z,3348.00
2018-06-13T13:47:10.010Z,3268.00
2018-06-13T13:49:03.380Z,3144.00
2018-06-13T13:50:03.284Z,3112.00
2018-06-13T13:51:56.122Z,2912.00
2018-06-13T13:52:56.015Z,2744.00
2018-06-13T13:54:48.862Z,2864.00
2018-06-13T13:55:48.793Z,2280.00
2018-06-13T13:57:41.622Z,1948.00
2018-06-13T13:58:41.507Z,1788.00
2018-06-13T14:00:34.274Z,1592.00
2018-06-13T14:01:34.166Z,1552.00
2018-06-13T14:03:27.047Z,1536.00
2018-06-13T14:04:26.912Z,1552.00
2018-06-13T14:06:19.784Z,1580.00
2018-06-13T14:07:19.655Z,1596.00
2018-06-13T14:09:12.524Z,1676.00
2018-06-13T14:10:12.446Z,1732.00
2018-06-13T14:12:05.286Z,1880.00
2018-06-13T14:13:05.199Z,1952.00
2018-06-13T14:14:58.228Z,2064.00
2018-06-13T14:15:58.005Z,2124.00
2018-06-13T14:17:50.873Z,2232.00
2018-06-13T14:18:50.761Z,2280.00
2018-06-13T14:20:43.631Z,2336.00
2018-06-13T14:21:43.528Z,2360.00
2018-06-13T14:23:36.275Z,2392.00
2018-06-13T14:24:36.186Z,2432.00
2018-06-13T14:26:28.921Z,2508.00
2018-06-13T14:27:28.802Z,2528.00
2018-06-13T14:29:21.559Z,2576.00
2018-06-13T14:30:21.501Z,2592.00
2018-06-13T14:32:14.318Z,2604.00
2018-06-13T14:33:14.293Z,2608.00
2018-06-13T14:35:07.033Z,2600.00
2018-06-13T14:36:07.018Z,2628.00
2018-06-13T14:37:59.620Z,2652.00
2018-06-13T14:38:59.495Z,2636.00
2018-06-13T14:40:52.374Z,2600.00
2018-06-13T14:41:52.262Z,2588.00
2018-06-13T14:43:45.622Z,2544.00
2018-06-13T14:44:45.040Z,2516.00
2018-06-13T14:46:39.328Z,2412.00
2018-06-13T14:47:39.257Z,2388.00
2018-06-13T14:49:32.084Z,2284.00
2018-06-13T14:50:31.928Z,2224.00
2018-06-13T14:52:24.782Z,2084.00
2018-06-13T14:53:24.744Z,1968.00
2018-06-13T14:56:22.757Z,1608.00
2018-06-13T14:58:15.527Z,1372.00
2018-06-13T14:59:15.419Z,1276.00
2018-06-13T15:01:08.278Z,1140.00
2018-06-13T15:02:08.228Z,1116.00
2018-06-13T15:04:00.996Z,1088.00
2018-06-13T15:05:00.939Z,1056.00
2018-06-13T15:06:54.112Z,1012.00
2018-06-13T15:07:53.708Z,1024.00
2018-06-13T15:09:47.446Z,1104.00
2018-06-13T15:10:47.322Z,1156.00
2018-06-13T15:12:40.442Z,1240.00
2018-06-13T15:13:40.145Z,1284.00
2018-06-13T15:15:32.946Z,1368.00
2018-06-13T15:16:32.815Z,1412.00
2018-06-13T15:18:25.698Z,1504.00
2018-06-13T15:19:25.587Z,1544.00
2018-06-13T15:21:18.406Z,1596.00
2018-06-13T15:22:18.340Z,1628.00
2018-06-13T15:24:12.212Z,1700.00
2018-06-13T15:25:12.105Z,1732.00
2018-06-13T15:27:05.020Z,1812.00
2018-06-13T15:28:04.835Z,1864.00
2018-06-13T15:29:57.713Z,1976.00
2018-06-13T15:30:57.591Z,2036.00
2018-06-13T15:32:51.389Z,2168.00
2018-06-13T15:33:51.459Z,2244.00
2018-06-13T15:35:44.791Z,2348.00
2018-06-13T15:36:44.181Z,2364.00
2018-06-13T15:38:37.387Z,2376.00
2018-06-13T15:39:37.283Z,2380.00
2018-06-13T15:41:30.282Z,2400.00
2018-06-13T15:42:30.038Z,2420.00
2018-06-13T15:44:23.578Z,2412.00
2018-06-13T15:45:22.820Z,2368.00
2018-06-13T15:47:16.436Z,2272.00
2018-06-13T15:48:16.342Z,2228.00
2018-06-13T15:50:09.323Z,2188.00
2018-06-13T15:51:09.091Z,2176.00
2018-06-13T15:53:01.934Z,2140.00
2018-06-13T15:54:01.839Z,2112.00
2018-06-13T15:55:55.211Z,2116.00
2018-06-13T15:56:54.494Z,2108.00
2018-06-13T15:58:47.341Z,2080.00
2018-06-13T15:59:47.360Z,2036.00
2018-06-13T16:01:40.365Z,1932.00
2018-06-13T16:02:39.997Z,1920.00
2018-06-13T16:04:32.885Z,1984.00
2018-06-13T16:05:32.769Z,2004.00
2018-06-13T16:07:25.572Z,1924.00
2018-06-13T16:08:25.483Z,1800.00
2018-06-13T16:10:18.339Z,1584.00
2018-06-13T16:11:18.232Z,1480.00
2018-06-13T16:13:11.089Z,1244.00
2018-06-13T16:14:11.000Z,1156.00
2018-06-13T16:16:06.939Z,992.00
2018-06-13T16:17:06.705Z,904.00
2018-06-13T16:18:59.579Z,804.00
2018-06-13T16:19:59.508Z,776.00
2018-06-13T16:21:52.984Z,716.00
2018-06-13T16:22:52.217Z,684.00
2018-06-13T16:24:45.565Z,640.00
2018-06-13T16:25:45.464Z,632.00
2018-06-13T16:27:39.391Z,624.00
2018-06-13T16:28:40.235Z,632.00
2018-06-13T16:30:31.990Z,640.00
2018-06-13T16:31:31.902Z,652.00
2018-06-13T16:33:24.644Z,680.00
2018-06-13T16:34:24.541Z,700.00
2018-06-13T16:36:17.416Z,736.00
2018-06-13T16:37:17.518Z,756.00
2018-06-13T16:39:10.814Z,772.00
2018-06-13T16:40:10.547Z,780.00
2018-06-13T16:42:03.296Z,780.00
2018-06-13T16:43:03.183Z,776.00
2018-06-13T16:44:56.335Z,772.00
2018-06-13T16:45:55.934Z,776.00
2018-06-13T16:47:48.824Z,780.00
2018-06-13T16:48:48.666Z,776.00
2018-06-13T16:50:41.429Z,772.00
2018-06-13T16:51:41.335Z,768.00
2018-06-13T16:53:34.128Z,772.00
2018-06-13T16:54:33.997Z,768.00
2018-06-13T16:56:26.871Z,768.00
2018-06-13T16:57:26.749Z,764.00
2018-06-13T16:59:20.187Z,756.00
2018-06-13T17:00:19.557Z,752.00
2018-06-13T17:02:12.400Z,740.00
2018-06-13T17:03:12.234Z,732.00
2018-06-13T17:05:05.093Z,724.00
2018-06-13T17:06:05.061Z,732.00
2018-06-13T17:07:57.863Z,740.00
2018-06-13T17:08:57.750Z,736.00
2018-06-13T17:10:52.731Z,732.00
2018-06-13T17:11:52.283Z,732.00
2018-06-13T17:13:46.013Z,736.00
2018-06-13T17:14:46.141Z,740.00
2018-06-13T17:16:39.401Z,736.00
2018-06-13T17:17:40.234Z,732.00
2018-06-13T17:19:32.011Z,744.00
2018-06-13T17:20:31.903Z,748.00
2018-06-13T17:22:24.782Z,744.00
2018-06-13T17:23:24.656Z,732.00
2018-06-13T17:25:17.517Z,720.00
2018-06-13T17:26:17.396Z,716.00
2018-06-13T17:28:10.263Z,704.00
2018-06-13T17:29:10.146Z,700.00
2018-06-13T17:31:02.933Z,692.00
2018-06-13T17:32:02.826Z,688.00
2018-06-13T17:33:55.690Z,668.00
2018-06-13T17:34:55.540Z,652.00
2018-06-13T17:36:48.413Z,616.00
2018-06-13T17:37:48.369Z,596.00
2018-06-13T17:39:41.176Z,552.00
2018-06-13T17:40:41.041Z,528.00
2018-06-13T17:42:33.910Z,480.00
2018-06-13T17:43:33.822Z,460.00
2018-06-13T17:45:26.677Z,420.00
2018-06-13T17:46:26.581Z,400.00
2018-06-13T17:48:19.421Z,360.00
2018-06-13T17:49:19.286Z,344.00
2018-06-13T17:51:12.175Z,308.00
2018-06-13T17:52:12.046Z,300.00
2018-06-13T17:54:04.980Z,276.00